Time;durP1;ratioP1;P1;durP2;ratioP2;P2;SDS_P1;SDS_P2;PMS_P1;PMS_P2;Temp;Humidity;BMP_temperature;BMP_pressure;BME280_temperature;BME280_humidity;BME280_pressure;Samples;Min_cycle;Max_cycle;Signal;HPM_P1;HPM_P2
2022/04/25 04:01:59;;;;;;;128.13;48.45;;;8.00;99.90;;;;;;5293726;23;20054;-73
2022/04/25 04:04:24;;;;;;;106.00;48.45;;;7.80;99.90;;;;;;5014061;28;20074;-73
2022/04/25 04:06:50;;;;;;;113.18;48.92;;;7.60;99.90;;;;;;5015099;28;20038;-73
2022/04/25 04:12:00;;;;;;;117.28;48.70;;;7.30;99.90;;;;;;5015161;28;20043;-73
2022/04/25 04:14:25;;;;;;;161.10;52.47;;;7.10;99.90;;;;;;5015433;28;20042;-74
2022/04/25 04:16:51;;;;;;;187.95;53.97;;;7.00;99.90;;;;;;5015006;28;20030;-74
2022/04/25 04:19:16;;;;;;;191.10;53.63;;;6.90;99.90;;;;;;5014726;28;20030;-74
2022/04/25 04:21:42;;;;;;;134.15;50.90;;;6.70;99.90;;;;;;5013400;28;20391;-74
2022/04/25 04:24:10;;;;;;;136.05;50.30;;;6.60;99.90;;;;;;5014712;28;20515;-74
2022/04/25 04:26:35;;;;;;;135.10;50.60;;;6.70;99.90;;;;;;5014842;28;20034;-74
2022/04/25 04:29:01;;;;;;;204.75;54.80;;;6.60;99.90;;;;;;5014782;28;20396;-74
2022/04/25 04:31:26;;;;;;;196.07;53.05;;;6.70;99.90;;;;;;5013346;28;20069;-75
2022/04/25 04:33:52;;;;;;;160.35;51.92;;;6.60;99.90;;;;;;5012926;28;20045;-75
2022/04/25 04:36:17;;;;;;;192.00;53.88;;;6.50;99.90;;;;;;5013193;28;20552;-74
2022/04/25 04:38:44;;;;;;;189.45;55.08;;;6.50;99.90;;;;;;5014741;28;20476;-75
2022/04/25 04:41:09;;;;;;;168.77;54.10;;;6.50;99.90;;;;;;5014604;28;20500;-74
2022/04/25 04:43:35;;;;;;;217.45;57.15;;;6.50;99.90;;;;;;5014488;28;20034;-75
2022/04/25 04:46:01;;;;;;;167.60;57.17;;;6.50;99.90;;;;;;5013301;28;20077;-76
2022/04/25 04:48:26;;;;;;;135.90;54.58;;;6.50;99.90;;;;;;5014638;28;20034;-75
2022/04/25 04:50:55;;;;;;;133.57;52.45;;;6.50;99.90;;;;;;5022138;28;20034;-75
2022/04/25 04:53:21;;;;;;;135.55;52.58;;;6.70;99.90;;;;;;5026979;28;20046;-82
2022/04/25 04:55:47;;;;;;;147.05;54.25;;;6.70;99.90;;;;;;5034833;28;20034;-76
2022/04/25 04:58:13;;;;;;;227.02;60.78;;;6.70;99.90;;;;;;5034438;28;20474;-74
2022/04/25 05:00:39;;;;;;;160.85;53.88;;;6.70;99.90;;;;;;5020103;28;20826;-75
2022/04/25 05:03:05;;;;;;;176.52;55.60;;;6.70;99.90;;;;;;5014445;28;20106;-75
2022/04/25 05:05:31;;;;;;;171.77;56.88;;;6.80;99.90;;;;;;5015270;28;20448;-75
2022/04/25 05:07:56;;;;;;;150.32;55.67;;;7.00;99.90;;;;;;5013512;28;20034;-75
2022/04/25 05:10:22;;;;;;;203.38;65.40;;;7.20;99.90;;;;;;5014405;28;20027;-75
2022/04/25 05:12:50;;;;;;;199.02;65.30;;;7.40;99.90;;;;;;5014539;28;20488;-74
2022/04/25 05:15:19;;;;;;;212.10;63.03;;;7.60;99.90;;;;;;5016266;28;20057;-77
2022/04/25 05:17:50;;;;;;;152.35;59.97;;;7.90;99.90;;;;;;5017707;28;20089;-75
2022/04/25 05:20:16;;;;;;;189.32;62.85;;;8.10;99.90;;;;;;5018026;28;20030;-77
2022/04/25 05:22:44;;;;;;;154.45;57.97;;;8.20;99.90;;;;;;5018027;28;20647;-75
2022/04/25 05:25:14;;;;;;;142.00;58.67;;;8.30;99.90;;;;;;5015741;28;20038;-75
2022/04/25 05:27:40;;;;;;;162.57;60.13;;;8.40;99.90;;;;;;5016013;28;20112;-74
2022/04/25 05:30:06;;;;;;;155.52;57.20;;;8.50;99.90;;;;;;5015950;28;20041;-74
2022/04/25 05:32:55;;;;;;;137.55;59.10;;;8.50;99.90;;;;;;5015655;28;20113;-74
2022/04/25 05:35:26;;;;;;;125.63;54.75;;;8.50;99.90;;;;;;5017560;28;20052;-72
2022/04/25 05:37:52;;;;;;;116.25;55.67;;;8.50;99.90;;;;;;5017560;28;20045;-72
2022/04/25 05:40:18;;;;;;;112.93;53.67;;;8.60;99.90;;;;;;5017288;28;20077;-72
2022/04/25 05:42:45;;;;;;;119.03;54.10;;;8.70;99.90;;;;;;5017075;28;20052;-72
2022/04/25 05:45:12;;;;;;;103.35;52.97;;;8.80;99.90;;;;;;5017038;28;20030;-74
2022/04/25 05:47:38;;;;;;;106.50;53.88;;;8.90;99.90;;;;;;5008619;28;20062;-74
2022/04/25 05:52:50;;;;;;;103.90;53.03;;;9.20;99.90;;;;;;5006341;28;20050;-74
2022/04/25 05:55:16;;;;;;;117.78;54.75;;;9.40;99.90;;;;;;5008573;28;21000;-74
2022/04/25 05:57:41;;;;;;;97.00;49.15;;;9.50;99.90;;;;;;5009089;28;20558;-74
2022/04/25 06:00:10;;;;;;;84.32;47.40;;;9.60;99.90;;;;;;5015007;28;20026;-74
2022/04/25 06:02:37;;;;;;;73.20;45.63;;;9.50;99.90;;;;;;4995424;28;20047;-74
2022/04/25 06:05:04;;;;;;;73.07;44.00;;;9.60;99.90;;;;;;5010851;28;20038;-75
2022/04/25 06:07:30;;;;;;;62.50;42.60;;;9.60;99.90;;;;;;4997830;28;20031;-74
2022/04/25 06:09:56;;;;;;;74.90;42.80;;;9.60;99.90;;;;;;5011837;28;20038;-75
2022/04/25 06:12:22;;;;;;;65.70;42.50;;;9.70;99.90;;;;;;5004710;28;20381;-75
2022/04/25 06:14:48;;;;;;;62.95;41.20;;;9.90;99.90;;;;;;5015055;28;20070;-74
2022/04/25 06:17:15;;;;;;;56.35;39.33;;;9.90;99.90;;;;;;5001024;28;20062;-76
2022/04/25 06:19:41;;;;;;;59.88;38.55;;;9.90;99.90;;;;;;5012680;28;20046;-75
2022/04/25 06:22:09;;;;;;;50.97;36.72;;;9.80;99.90;;;;;;5008800;28;20042;-75
2022/04/25 06:24:35;;;;;;;52.22;36.83;;;9.70;99.90;;;;;;5015814;28;20038;-75
2022/04/25 06:27:02;;;;;;;54.40;37.78;;;9.70;99.90;;;;;;5007533;28;20038;-75
2022/04/25 06:29:29;;;;;;;52.30;37.42;;;9.80;99.90;;;;;;5016632;28;20034;-75
2022/04/25 06:31:55;;;;;;;51.88;36.45;;;9.70;99.90;;;;;;5014790;28;20030;-75
2022/04/25 06:34:20;;;;;;;46.10;34.63;;;9.70;99.90;;;;;;5016343;28;20481;-73
2022/04/25 06:36:46;;;;;;;45.03;34.35;;;9.70;99.90;;;;;;5006300;28;20085;-73
2022/04/25 06:39:11;;;;;;;49.30;36.10;;;9.60;99.90;;;;;;4997238;28;20070;-73
2022/04/25 06:41:37;;;;;;;46.80;34.42;;;9.50;99.90;;;;;;5007175;28;20042;-74
2022/04/25 06:44:02;;;;;;;49.38;35.17;;;9.60;99.90;;;;;;4996631;28;20039;-73
2022/04/25 06:46:29;;;;;;;46.78;34.92;;;9.80;99.90;;;;;;5003392;28;20034;-74
2022/04/25 06:51:39;;;;;;;52.25;36.30;;;9.70;99.90;;;;;;5001918;28;20039;-74
2022/04/25 06:54:06;;;;;;;48.72;35.30;;;9.80;99.90;;;;;;5011669;28;20127;-75
2022/04/25 06:56:32;;;;;;;46.17;35.38;;;10.10;99.90;;;;;;5008727;28;20035;-74
2022/04/25 06:58:57;;;;;;;43.33;33.35;;;10.20;99.90;;;;;;5008517;28;20494;-74
2022/04/25 07:01:23;;;;;;;40.65;32.88;;;10.30;99.90;;;;;;5010215;28;20489;-74
2022/04/25 07:03:48;;;;;;;38.60;30.98;;;10.40;99.90;;;;;;4996199;28;20186;-74
2022/04/25 07:06:14;;;;;;;38.47;30.50;;;10.60;99.90;;;;;;5004560;28;20042;-75
2022/04/25 07:08:39;;;;;;;36.42;29.23;;;10.80;99.90;;;;;;4996272;28;20541;-81
2022/04/25 07:11:08;;;;;;;32.20;27.60;;;10.70;99.90;;;;;;5005516;28;20398;-76
2022/04/25 07:13:34;;;;;;;35.60;28.67;;;10.70;99.90;;;;;;5014759;28;20503;-78
2022/04/25 07:15:59;;;;;;;35.65;29.80;;;10.80;99.90;;;;;;5010465;28;20044;-75
2022/04/25 07:18:25;;;;;;;33.28;27.45;;;10.70;99.90;;;;;;4996040;28;20035;-83
2022/04/25 07:20:50;;;;;;;32.55;26.67;;;10.70;99.90;;;;;;5010654;28;20145;-75
2022/04/25 07:28:49;;;;;;;35.47;26.83;;;10.70;99.90;;;;;;4995445;28;20507;-75
2022/04/25 07:31:17;;;;;;;33.58;27.38;;;10.80;99.90;;;;;;5014201;28;20038;-77
2022/04/25 07:33:45;;;;;;;31.42;26.13;;;10.90;99.90;;;;;;5014960;28;20181;-75
2022/04/25 07:36:12;;;;;;;32.10;26.95;;;11.10;99.90;;;;;;5005842;28;20456;-76
2022/04/25 07:38:39;;;;;;;30.58;24.95;;;10.90;99.90;;;;;;5014385;28;20034;-76
2022/04/25 07:41:06;;;;;;;31.55;23.85;;;11.00;99.90;;;;;;5014831;28;20042;-75
2022/04/25 07:43:32;;;;;;;28.83;24.80;;;11.00;99.90;;;;;;5012044;28;20547;-76
2022/04/25 07:45:57;;;;;;;29.90;25.00;;;11.20;99.90;;;;;;5012534;28;20121;-76
2022/04/25 07:48:25;;;;;;;31.17;26.15;;;11.60;99.90;;;;;;4997195;28;20173;-76
2022/04/25 07:50:50;;;;;;;27.95;21.92;;;12.20;99.90;;;;;;5014778;28;20035;-73
2022/04/25 07:53:16;;;;;;;23.35;20.50;;;12.40;99.90;;;;;;5002177;28;20051;-74
2022/04/25 07:55:42;;;;;;;22.77;20.38;;;12.40;99.90;;;;;;5005084;28;20038;-75
2022/04/25 07:58:08;;;;;;;28.05;22.10;;;12.30;99.90;;;;;;5014872;28;20093;-74
2022/04/25 08:00:35;;;;;;;24.27;20.05;;;12.40;99.90;;;;;;4994895;28;20114;-75
2022/04/25 08:03:01;;;;;;;20.65;18.42;;;12.30;99.90;;;;;;5002959;28;20034;-76
2022/04/25 08:05:26;;;;;;;22.02;19.50;;;12.40;99.90;;;;;;5010099;28;20440;-75
2022/04/25 08:07:52;;;;;;;22.50;20.10;;;12.60;99.90;;;;;;4995620;28;20043;-76
2022/04/25 08:10:18;;;;;;;20.30;17.77;;;12.60;99.90;;;;;;5012167;28;20125;-75
2022/04/25 08:18:13;;;;;;;13.63;12.20;;;12.70;99.90;;;;;;5011939;28;20042;-74
2022/04/25 08:20:39;;;;;;;14.88;11.38;;;12.80;99.90;;;;;;5001732;28;20042;-73
2022/04/25 08:23:13;;;;;;;14.10;12.50;;;12.60;99.90;;;;;;4993224;28;20050;-74
2022/04/25 08:25:40;;;;;;;17.55;15.45;;;12.90;99.90;;;;;;4996407;28;20027;-73
2022/04/25 08:28:06;;;;;;;19.23;16.70;;;13.00;99.90;;;;;;4996860;28;20049;-74
2022/04/25 08:30:32;;;;;;;17.55;15.65;;;13.40;99.90;;;;;;4995913;28;20043;-74
2022/04/25 08:32:59;;;;;;;15.27;13.75;;;13.30;99.90;;;;;;4997957;28;20039;-74
2022/04/25 08:35:25;;;;;;;16.77;14.50;;;12.80;99.90;;;;;;4999130;28;20456;-75
2022/04/25 08:37:51;;;;;;;15.23;13.63;;;12.80;99.90;;;;;;5000151;28;20050;-73
2022/04/25 08:40:17;;;;;;;17.40;14.50;;;12.90;99.90;;;;;;4994443;28;20031;-74
2022/04/25 08:42:43;;;;;;;15.73;14.13;;;13.00;99.90;;;;;;4993742;28;20049;-74
2022/04/25 08:45:09;;;;;;;16.63;13.77;;;13.20;99.90;;;;;;4994332;28;20059;-73
2022/04/25 08:48:00;;;;;;;15.13;13.52;;;13.20;99.90;;;;;;5003400;28;20089;-74
2022/04/25 08:50:27;;;;;;;14.70;13.27;;;13.20;99.90;;;;;;4996295;28;20043;-73
2022/04/25 08:52:54;;;;;;;18.40;12.50;;;13.00;99.90;;;;;;5003368;28;20070;-74
2022/04/25 08:55:21;;;;;;;14.63;13.13;;;13.20;99.90;;;;;;5016345;28;20369;-74
2022/04/25 08:57:50;;;;;;;14.00;11.63;;;13.40;99.90;;;;;;5016617;28;20066;-74
2022/04/25 09:00:15;;;;;;;13.05;11.77;;;13.80;99.90;;;;;;5017431;28;20455;-74
2022/04/25 09:02:42;;;;;;;13.38;11.98;;;14.00;99.90;;;;;;5017653;28;20038;-75
2022/04/25 09:05:09;;;;;;;12.75;11.45;;;14.10;99.90;;;;;;5010334;28;20484;-74
2022/04/25 09:07:37;;;;;;;13.15;11.82;;;14.00;99.90;;;;;;4998167;28;20039;-74
2022/04/25 09:10:10;;;;;;;13.35;11.80;;;13.80;99.90;;;;;;4998087;28;20503;-74
2022/04/25 09:12:37;;;;;;;14.45;12.30;;;13.70;99.90;;;;;;5002863;28;20069;-74
2022/04/25 09:15:05;;;;;;;12.57;11.27;;;13.80;99.90;;;;;;5011793;28;20042;-74
2022/04/25 09:17:31;;;;;;;13.15;11.80;;;13.70;99.90;;;;;;5007752;28;20035;-75
2022/04/25 09:19:57;;;;;;;14.02;11.25;;;13.50;99.90;;;;;;5016138;28;20038;-74
2022/04/25 09:22:32;;;;;;;12.73;11.43;;;13.40;99.90;;;;;;5009047;28;20078;-74
2022/04/25 09:25:04;;;;;;;12.52;10.73;;;13.40;99.90;;;;;;5005841;28;20042;-73
2022/04/25 09:27:30;;;;;;;12.20;11.00;;;13.90;99.90;;;;;;5005834;28;20090;-75
2022/04/25 09:29:55;;;;;;;10.75;9.75;;;14.30;99.90;;;;;;4997820;28;20485;-75
2022/04/25 09:32:31;;;;;;;10.02;8.50;;;14.60;99.90;;;;;;4997720;28;20046;-76
2022/04/25 09:35:00;;;;;;;9.77;8.80;;;14.90;99.90;;;;;;4997387;28;20042;-75
2022/04/25 09:37:45;;;;;;;10.35;9.20;;;15.20;99.90;;;;;;5007222;28;20485;-75
2022/04/25 09:40:11;;;;;;;9.93;9.02;;;15.40;99.90;;;;;;4998073;28;20069;-77
2022/04/25 09:42:37;;;;;;;11.77;10.32;;;15.00;99.90;;;;;;5013006;28;20065;-80
2022/04/25 09:45:05;;;;;;;10.38;9.05;;;15.20;99.90;;;;;;5015497;28;20462;-77
2022/04/25 09:47:37;;;;;;;10.52;9.40;;;15.50;99.90;;;;;;5015982;28;20484;-77
2022/04/25 09:50:08;;;;;;;10.43;8.57;;;15.80;99.90;;;;;;5002591;28;20204;-78
2022/04/25 09:52:49;;;;;;;10.30;8.68;;;16.10;99.90;;;;;;4997982;28;20067;-77
2022/04/25 09:55:15;;;;;;;8.30;7.45;;;16.40;99.90;;;;;;5001419;28;20038;-74
2022/04/25 09:57:42;;;;;;;8.65;7.57;;;16.30;99.90;;;;;;5018578;28;20034;-85
2022/04/25 10:00:09;;;;;;;8.65;7.50;;;16.20;99.90;;;;;;5013766;28;20498;-74
2022/04/25 10:02:39;;;;;;;14.02;11.07;;;16.20;99.90;;;;;;5015824;28;20121;-74
2022/04/25 10:05:15;;;;;;;9.20;8.20;;;15.90;99.90;;;;;;5015212;28;20045;-73
2022/04/25 10:07:42;;;;;;;9.60;8.35;;;15.70;99.90;;;;;;4998473;28;20081;-73
2022/04/25 10:10:11;;;;;;;7.50;6.80;;;15.70;99.90;;;;;;4997807;28;20053;-74
2022/04/25 10:12:38;;;;;;;7.40;6.70;;;16.20;99.90;;;;;;5001869;28;20090;-74
2022/04/25 10:15:06;;;;;;;6.93;6.32;;;16.40;99.90;;;;;;4996127;28;20130;-74
2022/04/25 10:17:32;;;;;;;9.32;7.47;;;16.70;99.90;;;;;;5003969;28;20049;-75
2022/04/25 10:20:00;;;;;;;8.48;7.13;;;16.80;99.90;;;;;;5006059;28;20045;-75
2022/04/25 10:22:26;;;;;;;6.95;6.25;;;17.00;99.90;;;;;;4998239;28;20046;-75
2022/04/25 10:24:52;;;;;;;14.15;11.55;;;16.40;99.90;;;;;;5011216;28;20042;-75
2022/04/25 10:27:27;;;;;;;6.75;5.97;;;15.70;99.90;;;;;;5015975;28;20516;-75
2022/04/25 10:30:17;;;;;;;7.32;6.63;;;15.20;99.90;;;;;;4994536;28;20122;-75
2022/04/25 10:32:44;;;;;;;6.30;5.70;;;15.00;99.90;;;;;;4981935;28;20047;-79
2022/04/25 10:35:30;;;;;;;8.13;6.45;;;15.20;99.90;;;;;;4997070;28;20050;-76
2022/04/25 10:38:49;;;;;;;6.78;5.82;;;15.60;99.90;;;;;;4987335;28;20043;-75
2022/04/25 10:44:16;;;;;;;7.00;6.30;;;15.70;99.90;;;;;;4988566;28;20573;-76
2022/04/25 10:47:04;;;;;;;6.93;5.88;;;15.80;99.90;;;;;;4986855;28;20043;-75
2022/04/25 10:49:43;;;;;;;6.78;6.18;;;16.30;99.90;;;;;;4987147;28;20039;-76
2022/04/25 10:52:33;;;;;;;6.43;5.82;;;16.60;99.90;;;;;;4984664;28;20039;-75
2022/04/25 10:55:33;;;;;;;6.20;5.60;;;17.10;99.90;;;;;;4987730;28;20039;-75
2022/04/25 10:58:02;;;;;;;6.70;5.75;;;17.20;99.90;;;;;;4985055;28;20040;-77
2022/04/25 11:00:36;;;;;;;6.05;5.55;;;17.50;99.90;;;;;;5004713;28;20042;-76
2022/04/25 11:03:04;;;;;;;6.00;5.50;;;17.80;99.90;;;;;;4985870;28;20047;-77
2022/04/25 11:05:29;;;;;;;5.70;5.20;;;18.20;98.20;;;;;;4979157;28;20402;-77
2022/04/25 11:08:18;;;;;;;6.05;5.53;;;18.10;99.50;;;;;;4989345;28;20053;-77
2022/04/25 11:11:02;;;;;;;5.50;5.07;;;18.60;99.10;;;;;;4994534;28;20049;-77
2022/04/25 11:13:33;;;;;;;5.00;4.60;;;19.00;97.30;;;;;;4991988;28;20050;-77
2022/04/25 11:16:22;;;;;;;5.60;5.10;;;18.70;96.00;;;;;;4991050;28;20031;-77
2022/04/25 11:19:23;;;;;;;5.80;5.28;;;18.00;95.10;;;;;;4996237;28;20524;-77
2022/04/25 11:21:55;;;;;;;5.07;4.63;;;17.90;95.80;;;;;;4956915;28;20055;-77
2022/04/25 11:24:28;;;;;;;5.70;5.20;;;17.80;93.20;;;;;;4980702;28;20047;-78
2022/04/25 11:26:56;;;;;;;5.30;4.70;;;17.90;95.70;;;;;;4996891;28;20035;-78
2022/04/25 11:29:21;;;;;;;5.35;4.85;;;17.60;95.40;;;;;;4994282;28;20039;-76
2022/04/25 11:31:47;;;;;;;5.45;4.78;;;17.30;96.90;;;;;;4985415;28;20035;-76
2022/04/25 11:34:14;;;;;;;5.47;4.97;;;17.30;96.60;;;;;;4985935;28;20565;-77
2022/04/25 11:36:45;;;;;;;4.95;4.55;;;17.20;94.80;;;;;;4977580;28;20042;-78
2022/04/25 11:42:00;;;;;;;6.30;5.40;;;17.20;96.60;;;;;;4980444;28;20410;-78
2022/04/25 11:44:26;;;;;;;6.47;5.88;;;17.20;95.50;;;;;;4980226;28;20031;-77
2022/04/25 11:46:53;;;;;;;6.53;5.93;;;17.00;95.80;;;;;;4981197;28;20035;-78
2022/04/25 11:49:29;;;;;;;6.40;5.80;;;16.80;95.50;;;;;;4989053;28;20034;-77
2022/04/25 11:51:58;;;;;;;6.90;6.10;;;16.80;97.60;;;;;;5000005;28;20556;-78
2022/04/25 11:54:24;;;;;;;6.95;6.35;;;16.70;96.30;;;;;;4994984;28;20066;-78
2022/04/25 11:56:50;;;;;;;6.68;5.97;;;16.50;96.90;;;;;;4983891;28;20856;-78
2022/04/25 11:59:18;;;;;;;8.20;7.28;;;16.40;99.20;;;;;;4993889;28;20031;-79
2022/04/25 12:01:48;;;;;;;8.23;7.43;;;16.30;98.60;;;;;;4997972;28;20041;-79
2022/04/25 12:04:18;;;;;;;10.73;8.45;;;16.00;99.80;;;;;;4998623;28;20062;-79
2022/04/25 12:07:01;;;;;;;7.95;7.15;;;16.00;99.90;;;;;;4985813;28;20042;-79
2022/04/25 12:18:18;;;;;;;9.32;8.32;;;16.50;97.90;;;;;;5014204;28;20090;-79
2022/04/25 12:20:51;;;;;;;10.23;9.18;;;16.50;98.60;;;;;;5006078;28;20035;-78
2022/04/25 12:23:27;;;;;;;16.70;12.88;;;16.80;99.90;;;;;;5010824;28;20034;-77
2022/04/25 12:25:54;;;;;;;14.52;11.07;;;17.10;98.90;;;;;;5012522;28;20167;-78
2022/04/25 12:28:25;;;;;;;32.10;20.15;;;17.30;99.90;;;;;;5003092;28;20143;-77
2022/04/25 12:31:07;;;;;;;11.50;10.30;;;17.50;99.90;;;;;;4980178;28;20128;-79
2022/04/25 12:33:36;;;;;;;23.55;17.35;;;17.90;97.20;;;;;;4978590;28;20044;-76
2022/04/25 12:36:11;;;;;;;18.27;14.10;;;18.10;97.10;;;;;;4977361;28;20547;-76
2022/04/25 12:38:52;;;;;;;12.70;10.93;;;17.80;97.70;;;;;;4975011;28;20183;-77
2022/04/25 12:41:33;;;;;;;13.55;12.13;;;17.60;99.70;;;;;;4974816;28;20160;-77
2022/04/25 12:44:11;;;;;;;11.65;10.48;;;17.50;99.40;;;;;;4988267;28;20030;-77
2022/04/25 12:46:40;;;;;;;12.40;11.10;;;17.20;98.40;;;;;;4994469;28;20519;-76
2022/04/25 12:49:11;;;;;;;10.13;9.07;;;16.90;99.90;;;;;;4992496;28;20042;-77
2022/04/25 12:51:41;;;;;;;7.10;6.40;;;17.00;99.90;;;;;;4992576;28;20039;-76
2022/04/25 12:54:24;;;;;;;7.30;5.38;;;17.20;99.80;;;;;;4992725;28;20035;-76
2022/04/25 12:56:51;;;;;;;5.47;4.97;;;17.50;96.80;;;;;;4992824;28;20039;-76
2022/04/25 12:59:27;;;;;;;5.72;5.22;;;17.40;97.50;;;;;;4994732;28;20031;-78
2022/04/25 13:02:12;;;;;;;6.07;5.47;;;17.40;98.20;;;;;;4994460;28;20034;-76
2022/04/25 13:04:52;;;;;;;5.07;4.53;;;17.20;98.70;;;;;;4992922;28;20098;-77
2022/04/25 13:07:19;;;;;;;5.10;4.65;;;17.20;96.20;;;;;;4993024;28;20035;-77
2022/04/25 13:09:45;;;;;;;5.53;5.00;;;17.60;96.60;;;;;;4992767;28;20042;-77
2022/04/25 13:12:14;;;;;;;5.28;4.78;;;17.80;97.30;;;;;;4994390;28;20090;-77
2022/04/25 13:14:39;;;;;;;5.30;4.90;;;17.90;96.90;;;;;;4993760;28;20428;-77
2022/04/25 13:17:06;;;;;;;4.90;4.35;;;18.30;97.50;;;;;;4994262;28;20397;-75
2022/04/25 13:19:32;;;;;;;4.80;4.30;;;18.30;95.60;;;;;;4976157;28;20102;-76
2022/04/25 13:21:57;;;;;;;5.40;4.40;;;18.10;95.70;;;;;;4973302;28;20039;-75
2022/04/25 13:24:23;;;;;;;4.15;3.80;;;18.60;96.70;;;;;;4975357;28;20043;-77
2022/04/25 13:26:49;;;;;;;4.18;3.78;;;18.30;94.60;;;;;;4975211;28;20039;-80
2022/04/25 13:29:14;;;;;;;5.18;3.63;;;18.10;95.70;;;;;;4977272;28;20043;-80
2022/04/25 13:31:40;;;;;;;4.05;3.65;;;18.20;95.20;;;;;;4974703;28;20613;-78
2022/04/25 13:34:07;;;;;;;4.05;3.50;;;18.00;96.00;;;;;;4974398;28;20600;-79
2022/04/25 13:36:34;;;;;;;4.82;3.97;;;18.00;96.00;;;;;;4978142;28;20042;-77
2022/04/25 13:39:00;;;;;;;3.83;3.53;;;17.80;95.70;;;;;;4980425;28;20059;-81
2022/04/25 13:41:25;;;;;;;3.33;3.03;;;17.30;95.30;;;;;;4981137;28;20453;-78
2022/04/25 13:43:51;;;;;;;3.47;3.17;;;17.20;94.50;;;;;;4978299;28;20043;-78
2022/04/25 13:46:18;;;;;;;3.50;3.20;;;16.90;95.10;;;;;;4977745;28;20039;-77
2022/04/25 13:48:44;;;;;;;3.90;3.60;;;16.80;95.20;;;;;;4978405;28;20035;-77
2022/04/25 13:51:10;;;;;;;4.28;3.88;;;16.60;96.20;;;;;;4975879;28;20043;-78
2022/04/25 13:53:35;;;;;;;5.68;4.15;;;16.50;96.60;;;;;;4978042;28;20086;-77
2022/04/25 13:56:06;;;;;;;4.10;3.70;;;16.70;98.00;;;;;;4978460;28;20035;-77
2022/04/25 13:58:31;;;;;;;4.70;4.30;;;17.00;97.10;;;;;;4977683;28;20039;-77
2022/04/25 14:00:57;;;;;;;6.82;5.10;;;17.30;95.30;;;;;;4977259;28;20401;-77
2022/04/25 14:03:22;;;;;;;5.60;5.10;;;17.50;95.60;;;;;;4977766;28;20621;-76
2022/04/25 14:05:50;;;;;;;5.70;5.20;;;17.40;95.40;;;;;;4977617;28;20062;-79
2022/04/25 14:08:16;;;;;;;5.35;4.85;;;17.10;94.70;;;;;;4977940;28;20401;-77
2022/04/25 14:10:45;;;;;;;4.65;4.25;;;17.40;94.30;;;;;;4977827;28;20046;-76
2022/04/25 14:13:12;;;;;;;5.43;4.93;;;18.90;94.70;;;;;;4996564;28;20050;-75
2022/04/25 14:15:43;;;;;;;5.88;5.38;;;20.10;92.20;;;;;;4997557;28;20038;-76
2022/04/25 14:18:09;;;;;;;6.90;5.68;;;21.70;91.50;;;;;;4997901;28;20034;-77
2022/04/25 14:20:36;;;;;;;7.22;6.43;;;22.70;87.20;;;;;;4997375;28;20041;-78
2022/04/25 14:23:04;;;;;;;6.63;5.00;;;23.80;80.80;;;;;;4996644;28;20501;-78
2022/04/25 14:25:31;;;;;;;5.20;4.78;;;24.50;75.50;;;;;;4995907;28;20034;-79
2022/04/25 14:27:59;;;;;;;6.30;4.82;;;24.70;74.10;;;;;;4979259;28;20042;-76
2022/04/25 14:30:26;;;;;;;4.72;4.32;;;24.30;73.30;;;;;;4996757;28;20031;-75
2022/04/25 14:32:52;;;;;;;4.25;3.85;;;24.80;67.80;;;;;;4997245;28;20485;-76
2022/04/25 14:35:19;;;;;;;4.80;4.38;;;24.30;73.90;;;;;;4997047;28;20038;-77
2022/04/25 14:37:44;;;;;;;4.97;4.55;;;23.50;69.60;;;;;;4996838;28;20159;-78
2022/04/25 14:40:11;;;;;;;5.70;5.20;;;22.30;75.20;;;;;;4981528;28;20186;-76
2022/04/25 14:42:37;;;;;;;6.80;6.18;;;20.80;82.40;;;;;;4996411;28;20101;-75
2022/04/25 14:45:03;;;;;;;7.45;6.82;;;19.50;83.60;;;;;;4995390;28;20520;-75
2022/04/25 14:47:29;;;;;;;7.68;6.90;;;18.80;86.60;;;;;;4996725;28;20038;-76
2022/04/25 14:55:23;;;;;;;7.20;6.50;;;16.70;92.40;;;;;;4980163;28;20035;-75
2022/04/25 14:57:50;;;;;;;8.93;7.30;;;16.50;92.70;;;;;;4977365;28;20031;-76
2022/04/25 15:00:20;;;;;;;9.88;7.88;;;16.30;93.30;;;;;;4975581;28;20062;-76
2022/04/25 15:02:46;;;;;;;7.88;7.18;;;16.10;94.00;;;;;;4977344;28;20039;-76
2022/04/25 15:05:12;;;;;;;7.55;6.85;;;16.00;94.60;;;;;;4976836;28;20039;-76
2022/04/25 15:07:38;;;;;;;8.82;7.30;;;15.80;94.20;;;;;;4977442;28;20031;-76
2022/04/25 15:10:04;;;;;;;7.85;7.05;;;15.80;95.50;;;;;;4977747;28;20036;-75
2022/04/25 15:12:30;;;;;;;7.72;6.68;;;15.70;95.60;;;;;;4992596;28;20452;-76
2022/04/25 15:14:55;;;;;;;8.13;7.32;;;15.50;96.70;;;;;;4976591;28;20043;-76
2022/04/25 15:17:21;;;;;;;8.70;7.85;;;15.50;97.20;;;;;;4988210;28;20049;-76
2022/04/25 15:19:47;;;;;;;8.98;8.07;;;15.30;97.60;;;;;;4996458;28;20066;-77
2022/04/25 15:22:12;;;;;;;8.60;7.80;;;15.20;99.90;;;;;;4996666;28;20041;-75
2022/04/25 15:24:38;;;;;;;11.43;10.18;;;15.20;99.50;;;;;;4984506;28;20044;-75
2022/04/25 15:27:05;;;;;;;9.88;8.88;;;15.20;99.90;;;;;;4976019;28;20038;-78
2022/04/25 15:29:31;;;;;;;10.45;9.45;;;15.30;99.90;;;;;;4998105;28;20034;-76
2022/04/25 15:31:57;;;;;;;10.23;9.23;;;15.70;99.90;;;;;;5009320;28;20034;-76
2022/04/25 15:34:22;;;;;;;11.00;9.63;;;16.30;99.90;;;;;;5013938;28;20053;-75
2022/04/25 15:36:48;;;;;;;11.50;10.40;;;16.70;99.90;;;;;;5014209;28;20045;-75
2022/04/25 15:39:13;;;;;;;10.35;9.35;;;17.40;99.90;;;;;;4996353;28;20497;-75
2022/04/25 15:41:41;;;;;;;10.40;9.40;;;18.10;99.90;;;;;;4994185;28;20035;-75
2022/04/25 15:44:06;;;;;;;9.93;8.98;;;18.70;99.90;;;;;;4992054;28;20047;-76
2022/04/25 15:46:32;;;;;;;10.68;7.78;;;19.90;99.90;;;;;;4976539;28;20389;-76
2022/04/25 15:48:57;;;;;;;8.20;7.40;;;21.50;95.70;;;;;;4975254;28;20039;-76
2022/04/25 15:51:23;;;;;;;8.60;7.90;;;21.60;93.40;;;;;;4982380;28;20043;-77
2022/04/25 15:59:17;;;;;;;8.18;7.43;;;18.50;96.10;;;;;;4994138;28;20513;-76
2022/04/25 16:01:42;;;;;;;8.18;7.38;;;17.90;97.80;;;;;;4996705;28;20039;-77
2022/04/25 16:04:08;;;;;;;9.20;8.23;;;17.70;96.10;;;;;;4997182;28;20458;-79
2022/04/25 16:06:34;;;;;;;9.32;8.43;;;17.30;96.30;;;;;;4977450;28;20034;-76
2022/04/25 16:08:59;;;;;;;9.65;8.52;;;16.90;99.90;;;;;;4975551;28;20477;-76
2022/04/25 16:11:25;;;;;;;9.90;9.00;;;16.40;99.90;;;;;;4976616;28;20031;-76
2022/04/25 16:13:50;;;;;;;10.68;9.68;;;16.10;99.90;;;;;;4976891;28;20051;-79
2022/04/25 16:16:16;;;;;;;10.90;9.80;;;16.00;99.90;;;;;;4979580;28;20063;-80
2022/04/25 16:18:42;;;;;;;8.63;7.82;;;16.80;99.90;;;;;;4977227;28;20110;-78
2022/04/25 16:21:08;;;;;;;8.60;7.80;;;16.90;99.90;;;;;;4976849;28;20123;-80
2022/04/25 16:23:34;;;;;;;9.27;8.38;;;16.80;99.50;;;;;;4975983;28;20118;-78
2022/04/25 16:26:05;;;;;;;10.80;9.70;;;16.30;99.90;;;;;;4985098;28;20043;-77
2022/04/25 16:28:31;;;;;;;14.73;11.43;;;15.90;99.90;;;;;;4976126;28;20102;-77
2022/04/25 16:30:58;;;;;;;12.45;11.15;;;15.70;99.90;;;;;;4977050;28;20039;-77
2022/04/25 16:33:24;;;;;;;11.40;10.30;;;15.70;99.90;;;;;;4995587;28;20114;-78
2022/04/25 16:35:50;;;;;;;11.65;10.55;;;15.40;99.90;;;;;;4994696;28;20106;-77
2022/04/25 16:38:16;;;;;;;12.27;10.88;;;15.10;99.90;;;;;;5008850;28;20121;-77
2022/04/25 16:40:42;;;;;;;13.60;10.80;;;14.80;99.90;;;;;;4994741;28;20485;-77
2022/04/25 16:43:09;;;;;;;14.55;11.88;;;14.70;99.90;;;;;;4990493;28;20469;-76
2022/04/25 16:45:35;;;;;;;14.40;11.82;;;14.50;99.90;;;;;;4987407;28;20038;-75
2022/04/25 16:48:01;;;;;;;13.05;11.75;;;14.40;99.90;;;;;;4993368;28;20038;-76
2022/04/25 16:50:26;;;;;;;12.02;10.77;;;14.40;99.90;;;;;;4995982;28;20069;-78
2022/04/25 16:52:55;;;;;;;12.13;10.13;;;14.50;99.90;;;;;;4986557;28;20042;-74
2022/04/25 16:55:21;;;;;;;12.20;9.88;;;14.50;99.90;;;;;;4972216;28;21060;-79
2022/04/25 16:57:49;;;;;;;11.15;10.05;;;14.50;99.90;;;;;;4975630;28;20125;-78
2022/04/25 17:00:30;;;;;;;9.40;8.40;;;14.50;99.90;;;;;;4974389;28;20031;-76
2022/04/25 17:02:59;;;;;;;10.85;9.45;;;14.60;99.90;;;;;;4982392;28;20059;-78
2022/04/25 17:05:28;;;;;;;10.35;9.38;;;14.50;99.90;;;;;;5008152;28;20512;-74
2022/04/25 17:07:54;;;;;;;12.60;10.50;;;14.30;99.90;;;;;;5004225;28;20046;-78
2022/04/25 17:10:24;;;;;;;11.70;10.18;;;14.20;99.90;;;;;;5002067;28;20035;-77
2022/04/25 17:12:50;;;;;;;12.13;10.68;;;14.20;99.90;;;;;;4987801;28;20113;-78
2022/04/25 17:15:19;;;;;;;11.55;10.35;;;14.00;99.90;;;;;;4997787;28;20035;-78
2022/04/25 17:17:46;;;;;;;12.98;11.25;;;13.90;99.90;;;;;;4996872;28;20045;-78
2022/04/25 17:20:12;;;;;;;11.75;10.55;;;13.90;99.90;;;;;;5013893;28;20058;-78
2022/04/25 17:22:37;;;;;;;13.15;11.73;;;13.80;99.90;;;;;;4998963;28;20058;-77
2022/04/25 17:25:03;;;;;;;13.20;11.88;;;13.70;99.90;;;;;;5009712;28;20039;-80
2022/04/25 17:27:33;;;;;;;14.23;12.55;;;13.60;99.90;;;;;;5019680;28;20487;-77